Time;durP1;ratioP1;P1;durP2;ratioP2;P2;SDS_P1;SDS_P2;PMS_P1;PMS_P2;Temp;Humidity;BMP_temperature;BMP_pressure;BME280_temperature;BME280_humidity;BME280_pressure;Samples;Min_cycle;Max_cycle;Signal;HPM_P1;HPM_P2
2022/08/30 00:06:14;;;;;;;12.78;9.35;;;;;;;13.23;97.15;99433.73;4453747;78;21012;-83
2022/08/30 00:12:19;;;;;;;16.93;8.20;;;;;;;13.20;97.73;99442.14;4456826;78;21813;-82
2022/08/30 00:18:21;;;;;;;12.68;8.28;;;;;;;13.17;97.49;99427.02;4445629;78;22083;-83
2022/08/30 00:24:22;;;;;;;11.75;8.48;;;;;;;13.08;97.61;99433.40;4456936;78;20996;-83
2022/08/30 00:30:24;;;;;;;13.75;8.73;;;;;;;12.97;97.43;99428.38;4451279;78;21468;-82
2022/08/30 00:36:26;;;;;;;11.10;8.73;;;;;;;12.85;97.78;99434.97;4461136;77;21041;-82
2022/08/30 00:42:28;;;;;;;11.33;8.70;;;;;;;12.74;97.95;99441.52;4466765;77;21063;-82
2022/08/30 00:48:31;;;;;;;12.35;8.08;;;;;;;12.74;98.29;99445.06;4510021;76;20953;-82
2022/08/30 00:54:36;;;;;;;11.88;8.50;;;;;;;12.67;98.51;99444.21;4474150;76;21609;-82
2022/08/30 01:00:38;;;;;;;10.88;8.70;;;;;;;12.78;99.06;99440.98;4499531;76;21004;-82
2022/08/30 01:06:40;;;;;;;14.95;8.70;;;;;;;12.70;98.65;99443.45;4528942;76;21010;-81
2022/08/30 01:12:43;;;;;;;14.38;8.63;;;;;;;12.69;98.87;99434.41;4339898;80;21049;-81
2022/08/30 01:18:45;;;;;;;12.65;8.88;;;;;;;12.70;98.95;99431.86;4390769;78;21027;-82
2022/08/30 01:24:49;;;;;;;11.85;9.00;;;;;;;12.56;98.74;99428.41;4396209;78;20984;-82
2022/08/30 01:30:51;;;;;;;12.88;8.25;;;;;;;12.47;98.49;99423.81;4417226;78;20980;-82
2022/08/30 01:36:52;;;;;;;13.83;8.53;;;;;;;12.36;98.98;99428.97;4411377;78;20995;-82
2022/08/30 01:42:54;;;;;;;24.72;8.23;;;;;;;12.43;99.28;99422.20;4501493;76;20981;-83
2022/08/30 01:48:57;;;;;;;12.23;8.53;;;;;;;12.41;99.53;99421.77;4454992;77;21038;-81
2022/08/30 01:54:58;;;;;;;12.98;7.95;;;;;;;12.35;99.40;99426.83;4474021;77;20958;-82
2022/08/30 02:01:00;;;;;;;11.57;7.42;;;;;;;12.38;100.00;99407.43;4309225;79;21022;-81
2022/08/30 02:07:04;;;;;;;11.25;8.35;;;;;;;12.50;100.00;99423.63;4323470;79;20967;-82
2022/08/30 02:13:05;;;;;;;11.68;8.38;;;;;;;12.40;99.37;99426.47;4318686;79;20972;-82
2022/08/30 02:19:07;;;;;;;12.78;8.65;;;;;;;12.22;98.63;99421.95;4456978;77;21875;-81
2022/08/30 02:25:09;;;;;;;13.65;7.58;;;;;;;12.20;100.00;99414.70;4444948;77;20963;-81
2022/08/30 02:31:11;;;;;;;17.98;8.48;;;;;;;12.18;100.00;99420.53;4478834;77;21001;-80
2022/08/30 02:37:12;;;;;;;10.60;7.90;;;;;;;12.30;100.00;99417.55;4302293;80;21517;-81
2022/08/30 02:43:14;;;;;;;12.00;8.78;;;;;;;12.40;100.00;99415.48;4465948;77;21467;-81
2022/08/30 02:49:16;;;;;;;11.40;8.18;;;;;;;12.44;100.00;99407.29;4490262;76;21755;-81
2022/08/30 02:55:18;;;;;;;13.35;8.40;;;;;;;12.51;100.00;99404.63;4484431;77;21066;-81
2022/08/30 03:01:19;;;;;;;10.98;7.95;;;;;;;12.56;100.00;99403.69;4348841;80;21054;-82
2022/08/30 03:07:21;;;;;;;10.80;7.95;;;;;;;12.50;99.91;99401.66;4500341;77;20965;-82
2022/08/30 03:13:23;;;;;;;11.63;7.75;;;;;;;12.34;100.00;99418.97;4484924;76;20971;-82
2022/08/30 03:19:25;;;;;;;14.35;8.73;;;;;;;12.31;100.00;99420.50;4341218;80;21040;-82
2022/08/30 03:25:28;;;;;;;9.55;7.92;;;;;;;12.08;99.42;99415.73;4489168;77;21616;-82
2022/08/30 03:31:29;;;;;;;12.50;8.55;;;;;;;11.77;99.77;99417.51;4349746;80;20995;-82
2022/08/30 03:37:30;;;;;;;10.50;7.85;;;;;;;11.66;99.96;99426.17;4345769;80;21030;-82
2022/08/30 03:43:32;;;;;;;13.08;8.70;;;;;;;11.64;100.00;99414.78;4494334;76;21051;-82
2022/08/30 03:49:34;;;;;;;12.75;9.18;;;;;;;11.78;100.00;99426.50;4450494;77;21070;-82
2022/08/30 03:55:35;;;;;;;11.38;8.48;;;;;;;11.93;100.00;99424.94;4454496;77;21070;-82
2022/08/30 04:01:36;;;;;;;16.52;10.18;;;;;;;11.88;100.00;99431.34;4468909;77;21009;-82
2022/08/30 04:07:38;;;;;;;15.35;8.85;;;;;;;11.66;100.00;99445.37;4470811;77;21054;-82
2022/08/30 04:13:39;;;;;;;10.88;8.48;;;;;;;11.78;100.00;99451.98;4442397;77;21931;-81
2022/08/30 04:19:41;;;;;;;13.62;9.63;;;;;;;11.86;100.00;99450.92;4454214;77;21645;-81
2022/08/30 04:25:42;;;;;;;11.30;8.78;;;;;;;11.73;100.00;99452.30;4476468;77;21651;-82
2022/08/30 04:31:44;;;;;;;11.57;8.45;;;;;;;11.61;100.00;99459.36;4479166;77;21038;-82
2022/08/30 04:37:46;;;;;;;13.78;9.68;;;;;;;11.66;100.00;99456.34;4478387;77;21671;-81
2022/08/30 04:43:50;;;;;;;13.60;9.55;;;;;;;11.84;100.00;99455.22;4468158;77;21534;-81
2022/08/30 04:49:52;;;;;;;12.82;8.75;;;;;;;11.91;100.00;99463.52;4484222;77;20944;-82
2022/08/30 04:55:54;;;;;;;13.43;9.10;;;;;;;12.06;100.00;99466.07;4342471;79;21962;-81
2022/08/30 05:01:55;;;;;;;11.88;9.13;;;;;;;12.16;100.00;99472.86;4497247;76;21972;-81
2022/08/30 05:07:57;;;;;;;15.48;9.23;;;;;;;12.24;100.00;99476.70;4488230;76;20989;-82
2022/08/30 05:13:59;;;;;;;12.70;8.75;;;;;;;12.36;100.00;99483.30;4346975;80;21911;-82
2022/08/30 05:20:01;;;;;;;11.45;8.93;;;;;;;12.45;100.00;99485.16;4486870;77;20995;-81
2022/08/30 05:26:07;;;;;;;12.73;8.55;;;;;;;12.54;100.00;99489.77;4472197;76;20980;-81
2022/08/30 05:32:09;;;;;;;11.93;8.95;;;;;;;12.62;100.00;99491.44;4336778;80;21161;-82
2022/08/30 05:38:10;;;;;;;11.63;7.53;;;;;;;12.73;100.00;99493.52;4346833;80;21021;-81
2022/08/30 05:44:11;;;;;;;14.43;8.18;;;;;;;12.85;100.00;99492.66;4458299;78;21000;-82
2022/08/30 05:50:13;;;;;;;13.08;8.03;;;;;;;12.94;100.00;99489.02;4309556;81;20988;-81
2022/08/30 05:56:19;;;;;;;13.35;8.60;;;;;;;13.05;100.00;99494.62;4451129;78;21494;-83
2022/08/30 06:02:21;;;;;;;15.57;9.70;;;;;;;13.18;100.00;99498.69;4451274;78;20979;-81
2022/08/30 06:08:22;;;;;;;21.05;10.00;;;;;;;13.36;100.00;99506.51;4442955;78;21836;-82
2022/08/30 06:14:24;;;;;;;15.63;10.30;;;;;;;13.58;100.00;99501.34;4446486;78;21456;-82
2022/08/30 06:20:25;;;;;;;19.05;13.18;;;;;;;13.81;100.00;99501.91;4454104;78;21011;-82
2022/08/30 06:26:28;;;;;;;13.55;10.00;;;;;;;14.04;100.00;99510.69;4311350;81;20996;-82
2022/08/30 06:32:29;;;;;;;17.45;8.78;;;;;;;14.42;100.00;99495.55;4318689;80;21015;-82
2022/08/30 06:38:30;;;;;;;12.45;6.83;;;;;;;14.83;100.00;99500.98;4315683;80;21025;-83
2022/08/30 06:44:32;;;;;;;13.15;7.92;;;;;;;15.12;100.00;99497.87;4315832;80;21042;-82
2022/08/30 06:50:33;;;;;;;13.25;6.97;;;;;;;15.37;100.00;99499.25;4346585;79;20999;-82
2022/08/30 06:56:35;;;;;;;19.05;8.10;;;;;;;15.64;100.00;99506.75;4351479;79;21602;-82
2022/08/30 07:02:37;;;;;;;18.25;8.20;;;;;;;15.89;100.00;99501.79;4326976;80;21082;-82
2022/08/30 07:08:39;;;;;;;15.40;9.65;;;;;;;16.14;100.00;99510.80;4316337;80;21533;-83
2022/08/30 07:14:41;;;;;;;13.38;8.03;;;;;;;16.33;100.00;99507.58;4328445;80;21455;-82
2022/08/30 07:20:45;;;;;;;17.00;9.10;;;;;;;16.57;100.00;99509.48;4315812;79;21042;-82
2022/08/30 07:26:50;;;;;;;13.80;8.18;;;;;;;16.85;100.00;99505.95;4320694;79;21725;-84
2022/08/30 07:32:51;;;;;;;15.65;8.30;;;;;;;17.16;100.00;99506.95;4331775;79;21911;-83
2022/08/30 07:38:53;;;;;;;11.88;7.67;;;;;;;17.47;100.00;99514.25;4338998;79;21056;-82
2022/08/30 07:44:54;;;;;;;12.90;7.62;;;;;;;17.77;100.00;99519.91;4310152;79;21049;-83
2022/08/30 07:50:56;;;;;;;15.20;7.60;;;;;;;18.06;99.93;99500.41;4313096;80;21879;-82
2022/08/30 07:56:58;;;;;;;14.43;7.90;;;;;;;18.34;99.14;99509.78;4301459;80;21038;-83
2022/08/30 08:03:06;;;;;;;12.58;7.28;;;;;;;18.66;98.70;99510.80;4308711;80;21007;-83
2022/08/30 08:09:08;;;;;;;19.05;7.67;;;;;;;18.88;97.97;99505.74;4471457;77;21049;-82
2022/08/30 08:15:10;;;;;;;17.20;8.03;;;;;;;19.34;97.17;99509.42;4481168;77;20970;-83
2022/08/30 08:21:11;;;;;;;16.27;7.15;;;;;;;19.70;96.49;99516.58;4474224;77;21035;-82
2022/08/30 08:27:12;;;;;;;14.00;6.45;;;;;;;20.10;95.09;99516.82;4473096;77;20987;-83
2022/08/30 08:33:14;;;;;;;9.73;4.62;;;;;;;20.44;94.57;99512.42;4479324;77;20994;-82
2022/08/30 08:39:16;;;;;;;10.65;4.25;;;;;;;20.66;92.52;99517.09;4477681;77;21018;-84
2022/08/30 08:45:47;;;;;;;9.73;4.83;;;;;;;20.81;91.02;99526.73;4463220;76;20966;-84
2022/08/30 08:58:25;;;;;;;12.20;5.42;;;;;;;21.29;89.22;99528.83;4461811;77;20980;-84
2022/08/30 09:04:36;;;;;;;8.35;4.58;;;;;;;21.39;88.21;99521.61;4444511;77;21000;-83
2022/08/30 09:10:38;;;;;;;8.63;4.72;;;;;;;21.73;87.90;99526.15;4468958;77;21572;-82
2022/08/30 09:17:08;;;;;;;8.20;3.77;;;;;;;22.34;86.69;99520.55;4451745;77;21016;-83
2022/08/30 09:23:26;;;;;;;5.35;3.85;;;;;;;22.64;85.27;99521.51;4460246;77;20984;-85
2022/08/30 09:29:27;;;;;;;7.20;4.47;;;;;;;22.94;84.40;99514.00;4466008;77;21018;-84
2022/08/30 09:35:39;;;;;;;8.15;3.67;;;;;;;23.68;82.67;99510.23;4469680;77;21007;-85
2022/08/30 09:41:45;;;;;;;7.75;3.77;;;;;;;24.31;79.60;99513.64;4461496;76;21482;-84
2022/08/30 09:47:47;;;;;;;8.58;4.53;;;;;;;25.13;79.95;99510.74;4509806;76;21018;-85
2022/08/30 09:54:13;;;;;;;7.17;3.77;;;;;;;26.18;78.08;99504.16;4519170;76;21851;-85
2022/08/30 10:00:22;;;;;;;7.35;3.65;;;;;;;26.90;76.38;99504.70;4361246;79;20967;-85
2022/08/30 10:06:32;;;;;;;5.37;2.87;;;;;;;26.26;73.08;99504.02;4398561;79;22148;-85
2022/08/30 10:13:02;;;;;;;5.42;3.02;;;;;;;25.74;71.87;99504.25;4515918;76;21050;-85
2022/08/30 10:19:44;;;;;;;6.20;3.52;;;;;;;25.08;71.17;99490.94;4521163;76;20999;-84
2022/08/30 10:26:06;;;;;;;6.60;4.33;;;;;;;26.08;71.48;99489.36;4509478;76;21423;-85
2022/08/30 10:32:25;;;;;;;5.87;3.72;;;;;;;25.19;69.09;99489.89;4472099;77;21006;-85
2022/08/30 10:38:36;;;;;;;8.00;3.12;;;;;;;25.90;70.17;99481.53;4478794;77;21779;-85
2022/08/30 10:44:43;;;;;;;4.33;2.83;;;;;;;26.18;67.86;99478.13;4349889;79;21035;-86
2022/08/30 10:50:50;;;;;;;4.30;3.20;;;;;;;26.23;67.62;99476.89;4454881;77;20953;-86
2022/08/30 10:56:55;;;;;;;6.92;2.90;;;;;;;27.02;66.41;99465.78;4455349;76;21086;-86
2022/08/30 11:03:41;;;;;;;4.17;2.83;;;;;;;27.59;65.39;99461.77;4440163;77;21038;-86
2022/08/30 11:10:16;;;;;;;4.93;2.53;;;;;;;27.73;64.03;99458.86;4317195;79;21032;-85
2022/08/30 11:16:18;;;;;;;4.47;2.77;;;;;;;27.35;62.06;99463.78;4460791;77;20989;-86
2022/08/30 11:22:31;;;;;;;4.12;2.90;;;;;;;26.42;61.99;99458.75;4462132;77;21574;-86
2022/08/30 11:28:42;;;;;;;4.72;2.85;;;;;;;25.66;61.71;99462.33;4444471;77;21071;-85
2022/08/30 11:34:56;;;;;;;5.40;2.50;;;;;;;25.59;61.73;99457.05;4447426;76;21085;-86
2022/08/30 11:41:13;;;;;;;7.92;3.12;;;;;;;25.87;61.33;99442.56;4428682;77;20995;-86
2022/08/30 11:47:41;;;;;;;4.22;3.27;;;;;;;25.98;60.36;99442.88;4318056;80;21585;-85
2022/08/30 11:54:09;;;;;;;3.72;2.60;;;;;;;25.70;60.00;99439.15;4462170;76;21086;-85
2022/08/30 12:00:40;;;;;;;3.83;2.80;;;;;;;25.52;59.51;99432.10;4435784;76;21854;-85
2022/08/30 12:07:04;;;;;;;3.98;2.55;;;;;;;25.31;59.12;99426.73;4441362;77;21507;-86
2022/08/30 12:13:05;;;;;;;3.58;2.22;;;;;;;25.06;59.14;99420.63;4458652;76;21713;-85
2022/08/30 12:19:17;;;;;;;3.35;2.83;;;;;;;24.52;57.20;99407.89;4440673;77;21967;-85
2022/08/30 12:25:29;;;;;;;4.22;2.55;;;;;;;24.32;57.84;99401.88;4369349;79;21042;-85
2022/08/30 12:31:32;;;;;;;3.72;2.52;;;;;;;24.04;58.29;99394.55;4442252;76;21042;-86
2022/08/30 12:37:37;;;;;;;5.15;3.22;;;;;;;23.66;58.01;99393.16;4459874;77;21451;-84
2022/08/30 12:43:44;;;;;;;5.28;3.20;;;;;;;23.41;58.47;99394.64;4481703;76;21042;-85
2022/08/30 12:49:47;;;;;;;5.28;2.98;;;;;;;23.40;58.78;99384.06;4449564;77;21097;-84
2022/08/30 12:56:05;;;;;;;3.42;2.77;;;;;;;23.49;58.94;99370.17;4423558;76;20989;-85
2022/08/30 13:02:23;;;;;;;6.33;3.02;;;;;;;23.49;58.88;99371.57;4455227;76;21548;-85
2022/08/30 13:08:44;;;;;;;3.80;3.17;;;;;;;23.22;59.16;99369.91;4326913;79;20992;-86
2022/08/30 13:14:46;;;;;;;4.83;3.20;;;;;;;23.13;59.84;99369.19;4454564;76;21023;-84
2022/08/30 13:20:47;;;;;;;4.87;2.95;;;;;;;22.90;60.23;99375.77;4312507;80;20992;-85
2022/08/30 13:26:50;;;;;;;3.67;3.27;;;;;;;22.76;60.77;99362.27;4450352;76;21612;-85
2022/08/30 13:32:51;;;;;;;4.65;3.02;;;;;;;22.80;61.62;99358.77;4467912;76;21496;-85
2022/08/30 13:38:53;;;;;;;4.58;3.27;;;;;;;22.85;62.07;99356.17;4458985;77;20984;-86
2022/08/30 13:44:55;;;;;;;7.35;3.30;;;;;;;22.78;61.09;99353.63;4474232;77;21538;-85
2022/08/30 13:50:56;;;;;;;5.20;3.27;;;;;;;22.71;61.39;99351.66;4499251;76;20952;-85
2022/08/30 13:56:58;;;;;;;3.45;2.83;;;;;;;22.67;61.92;99344.81;4500740;76;21030;-86
2022/08/30 14:03:00;;;;;;;5.17;3.90;;;;;;;22.72;61.38;99339.28;4468262;77;21002;-86
2022/08/30 14:09:05;;;;;;;4.30;3.02;;;;;;;22.70;61.78;99336.95;4480980;76;21080;-86
2022/08/30 14:15:07;;;;;;;3.72;3.00;;;;;;;22.66;61.98;99336.89;4506269;77;21316;-86
2022/08/30 14:21:09;;;;;;;4.30;3.22;;;;;;;22.61;62.38;99335.45;4497814;76;20952;-86
2022/08/30 14:27:10;;;;;;;4.42;3.47;;;;;;;22.61;62.30;99324.90;4499667;77;21025;-85
2022/08/30 14:33:12;;;;;;;3.83;3.40;;;;;;;22.49;62.66;99322.23;4479596;76;20957;-85
2022/08/30 14:39:17;;;;;;;6.40;3.87;;;;;;;22.57;62.49;99315.84;4493395;76;20963;-85
2022/08/30 14:45:19;;;;;;;4.60;3.42;;;;;;;22.58;63.35;99315.39;4493119;77;21500;-85
2022/08/30 14:51:22;;;;;;;4.87;3.75;;;;;;;22.60;63.23;99316.34;4466235;77;21052;-86
2022/08/30 14:57:24;;;;;;;5.62;3.65;;;;;;;22.53;63.71;99317.38;4461000;77;21059;-85
2022/08/30 15:03:26;;;;;;;6.03;3.52;;;;;;;22.48;63.97;99315.11;4469217;77;20999;-85
2022/08/30 15:09:28;;;;;;;5.15;3.17;;;;;;;22.43;64.15;99309.30;4480198;76;20999;-85
2022/08/30 15:15:29;;;;;;;4.45;3.33;;;;;;;22.35;64.59;99307.98;4317648;80;21042;-85
2022/08/30 15:21:38;;;;;;;8.85;3.83;;;;;;;22.28;64.94;99308.19;4329870;79;21460;-85
2022/08/30 15:27:39;;;;;;;7.47;3.47;;;;;;;22.12;65.92;99304.09;4352327;79;21043;-86
2022/08/30 15:33:41;;;;;;;4.25;3.47;;;;;;;22.00;65.94;99305.66;4335789;79;20944;-85
2022/08/30 15:39:42;;;;;;;4.72;3.77;;;;;;;21.85;66.31;99300.95;4327364;79;21019;-85
2022/08/30 15:45:44;;;;;;;4.33;3.80;;;;;;;21.71;66.20;99304.28;4335158;79;21004;-85
2022/08/30 15:51:48;;;;;;;9.28;4.05;;;;;;;21.64;65.95;99305.87;4387274;79;21047;-85
2022/08/30 15:57:49;;;;;;;7.10;3.70;;;;;;;21.53;66.25;99297.66;4412835;78;21028;-86
2022/08/30 16:03:50;;;;;;;4.75;3.65;;;;;;;21.45;66.60;99297.08;4462965;78;21020;-85
2022/08/30 16:09:52;;;;;;;5.97;3.65;;;;;;;21.37;67.03;99287.36;4461439;78;21565;-85
2022/08/30 16:15:53;;;;;;;4.62;3.40;;;;;;;21.28;67.23;99278.84;4471913;78;20971;-85
2022/08/30 16:21:55;;;;;;;4.97;3.15;;;;;;;21.25;67.76;99276.17;4465486;77;21029;-86
2022/08/30 16:27:56;;;;;;;3.83;2.90;;;;;;;21.18;68.46;99277.14;4474028;78;21577;-85
2022/08/30 16:33:59;;;;;;;3.92;2.20;;;;;;;21.04;68.52;99277.52;4466460;79;21002;-86
2022/08/30 16:40:00;;;;;;;4.28;2.60;;;;;;;20.92;68.67;99279.58;4462961;78;20996;-85
2022/08/30 16:46:04;;;;;;;5.75;2.83;;;;;;;20.80;69.06;99273.95;4465423;78;21016;-85
2022/08/30 16:52:06;;;;;;;3.35;2.67;;;;;;;20.71;69.18;99279.34;4450944;78;21047;-85
2022/08/30 16:58:09;;;;;;;5.95;2.92;;;;;;;20.58;70.33;99283.44;4459577;78;21047;-85
2022/08/30 17:04:11;;;;;;;4.03;2.77;;;;;;;20.48;70.41;99285.09;4452234;78;20969;-86
2022/08/30 17:10:13;;;;;;;3.65;2.42;;;;;;;20.42;71.15;99291.80;4453781;78;21480;-85
2022/08/30 17:16:15;;;;;;;4.72;1.90;;;;;;;20.40;71.10;99297.60;4460185;78;21397;-85
2022/08/30 17:22:16;;;;;;;4.22;2.35;;;;;;;20.40;71.12;99303.95;4454327;78;20961;-85
2022/08/30 17:28:18;;;;;;;3.08;2.40;;;;;;;20.41;71.33;99314.45;4450128;78;22012;-85
2022/08/30 17:34:20;;;;;;;3.15;2.45;;;;;;;20.36;72.23;99322.70;4460016;78;21905;-85
2022/08/30 17:40:21;;;;;;;7.67;2.72;;;;;;;20.31;72.65;99326.61;4465625;78;21053;-85
2022/08/30 17:46:23;;;;;;;3.98;2.90;;;;;;;20.19;72.60;99335.80;4462269;78;21570;-85
2022/08/30 17:52:24;;;;;;;3.90;2.77;;;;;;;20.04;72.87;99344.25;4361646;78;20999;-85
2022/08/30 17:58:26;;;;;;;6.28;3.27;;;;;;;19.91;73.06;99348.88;4528782;76;22068;-85
2022/08/30 18:04:28;;;;;;;6.12;3.83;;;;;;;19.71;73.41;99360.61;4509925;76;22337;-83
2022/08/30 18:10:29;;;;;;;5.12;3.27;;;;;;;19.50;73.74;99369.94;4514470;76;20976;-85
2022/08/30 18:16:33;;;;;;;7.97;3.77;;;;;;;19.28;74.37;99377.88;4528814;76;21003;-85
2022/08/30 18:22:34;;;;;;;6.80;3.58;;;;;;;19.06;74.94;99390.52;4524772;76;20988;-85
2022/08/30 18:28:36;;;;;;;6.22;3.85;;;;;;;18.85;75.94;99394.25;4472748;77;21025;-85
2022/08/30 18:34:39;;;;;;;6.60;4.55;;;;;;;18.71;76.65;99393.88;4469050;77;20986;-85
2022/08/30 18:40:40;;;;;;;5.05;3.83;;;;;;;18.61;77.09;99403.92;4359668;79;20963;-85
2022/08/30 18:46:41;;;;;;;6.53;3.83;;;;;;;18.57;77.73;99410.10;4476570;77;21508;-84
2022/08/30 18:52:43;;;;;;;5.70;4.03;;;;;;;18.50;78.09;99409.42;4484593;77;20984;-84
2022/08/30 18:58:46;;;;;;;5.53;3.55;;;;;;;18.41;78.87;99414.11;4358954;79;21986;-85
2022/08/30 19:04:47;;;;;;;5.50;3.70;;;;;;;18.32;78.65;99413.02;4477350;77;20970;-85
2022/08/30 19:10:49;;;;;;;6.37;4.28;;;;;;;18.19;78.60;99414.77;4409729;78;21051;-84
2022/08/30 19:16:53;;;;;;;11.33;6.62;;;;;;;18.11;78.83;99411.30;4360709;79;21062;-85
2022/08/30 19:22:54;;;;;;;7.40;5.45;;;;;;;18.00;78.95;99409.86;4482274;77;21451;-85
2022/08/30 19:28:55;;;;;;;6.50;4.40;;;;;;;17.88;79.71;99409.81;4484865;77;20962;-85
2022/08/30 19:34:57;;;;;;;6.42;4.40;;;;;;;17.76;80.23;99406.80;4420800;79;20970;-85
2022/08/30 19:41:00;;;;;;;9.80;6.00;;;;;;;17.68;81.01;99417.14;4411847;79;21026;-85
2022/08/30 19:47:04;;;;;;;8.38;5.50;;;;;;;17.51;80.83;99413.96;4411680;78;21081;-84
2022/08/30 19:53:06;;;;;;;12.30;6.67;;;;;;;17.42;81.37;99418.38;4335461;79;21029;-84
2022/08/30 19:59:08;;;;;;;12.20;6.72;;;;;;;17.32;81.68;99415.89;4339055;79;21515;-84
2022/08/30 20:05:10;;;;;;;8.93;5.78;;;;;;;17.15;82.05;99419.60;4329088;80;20987;-85
2022/08/30 20:11:17;;;;;;;8.90;6.47;;;;;;;16.99;82.48;99415.22;4348783;79;20943;-85
2022/08/30 20:17:19;;;;;;;9.48;6.83;;;;;;;16.91;83.12;99415.08;4341891;79;21519;-85
2022/08/30 20:23:22;;;;;;;9.88;7.10;;;;;;;16.81;83.59;99419.49;4357961;79;21052;-85
2022/08/30 20:29:24;;;;;;;9.28;6.97;;;;;;;16.75;83.81;99412.83;4332524;80;21049;-84
2022/08/30 20:35:25;;;;;;;9.53;6.87;;;;;;;16.62;84.19;99410.34;4351392;79;21029;-85
2022/08/30 20:41:28;;;;;;;7.12;5.92;;;;;;;16.54;84.63;99412.95;4204792;81;20994;-84
2022/08/30 20:47:29;;;;;;;7.53;5.50;;;;;;;16.41;84.87;99417.33;4209785;80;21004;-84
2022/08/30 20:53:30;;;;;;;11.40;7.10;;;;;;;16.29;85.34;99414.24;4336424;79;20941;-84
2022/08/30 20:59:32;;;;;;;14.05;8.45;;;;;;;16.14;85.73;99411.38;4332168;79;20931;-84
2022/08/30 21:05:34;;;;;;;14.78;10.23;;;;;;;16.00;85.93;99420.52;4328755;79;21079;-84
2022/08/30 21:11:36;;;;;;;13.28;8.88;;;;;;;15.86;86.44;99428.05;4329128;79;20990;-84
2022/08/30 21:17:38;;;;;;;9.15;6.95;;;;;;;15.68;86.64;99423.19;4339444;79;21488;-84
2022/08/30 21:23:39;;;;;;;10.63;7.50;;;;;;;15.59;87.24;99430.48;4320772;80;21080;-83
2022/08/30 21:29:40;;;;;;;8.93;6.35;;;;;;;15.44;87.29;99422.82;4385558;78;21047;-84
2022/08/30 21:42:04;;;;;;;6.12;5.03;;;;;;;15.43;88.74;99428.16;4309943;80;21072;-84
2022/08/30 21:48:06;;;;;;;9.65;5.58;;;;;;;15.40;88.86;99430.33;4461352;76;21663;-84
2022/08/30 21:54:09;;;;;;;6.60;5.55;;;;;;;15.27;88.79;99433.25;4330034;80;21500;-84
2022/08/30 22:00:19;;;;;;;10.35;5.87;;;;;;;15.15;89.20;99434.25;4323254;79;21006;-84
2022/08/30 22:06:20;;;;;;;13.13;6.28;;;;;;;15.05;89.46;99436.43;4315550;80;21044;-84
2022/08/30 22:12:21;;;;;;;8.83;5.67;;;;;;;14.94;89.73;99432.88;4319926;80;21013;-84
2022/08/30 22:18:23;;;;;;;9.05;6.67;;;;;;;14.82;90.05;99436.00;4346373;80;21031;-83
2022/08/30 22:24:24;;;;;;;8.98;6.08;;;;;;;14.73;90.24;99429.52;4323345;80;21008;-83
2022/08/30 22:30:26;;;;;;;8.25;5.37;;;;;;;14.60;90.77;99429.68;4329383;80;21468;-83
2022/08/30 22:36:31;;;;;;;12.73;6.12;;;;;;;14.54;90.98;99422.19;4321717;80;20984;-84
2022/08/30 22:42:35;;;;;;;6.65;5.90;;;;;;;14.34;90.71;99427.84;4320511;80;21602;-84
2022/08/30 22:48:39;;;;;;;7.80;5.75;;;;;;;14.21;91.59;99430.13;4347376;80;21583;-83
2022/08/30 22:54:41;;;;;;;8.85;6.45;;;;;;;14.22;91.94;99423.44;4448684;76;21014;-83
2022/08/30 23:00:42;;;;;;;6.42;5.55;;;;;;;14.20;92.17;99418.32;4450226;77;20998;-83
2022/08/30 23:06:44;;;;;;;7.83;4.80;;;;;;;14.19;92.47;99429.14;4462757;76;21034;-83
2022/08/30 23:12:45;;;;;;;11.53;5.83;;;;;;;14.10;92.29;99427.93;4470287;77;21063;-84
2022/08/30 23:18:47;;;;;;;8.30;6.17;;;;;;;13.95;93.16;99438.69;4461238;77;21062;-83
